sensor_id;sensor_type;location;lat;lon;timestamp;P1;durP1;ratioP1;P2;durP2;ratioP2
33206;SDS011;19565;46.602;11.534;2022-12-15T00:02:06;29.27;;;27.93;;
33206;SDS011;19565;46.602;11.534;2022-12-15T00:04:52;29.83;;;28.53;;
33206;SDS011;19565;46.602;11.534;2022-12-15T00:07:39;29.80;;;28.50;;
33206;SDS011;19565;46.602;11.534;2022-12-15T00:10:24;30.57;;;29.17;;
33206;SDS011;19565;46.602;11.534;2022-12-15T00:13:11;30.50;;;29.20;;
33206;SDS011;19565;46.602;11.534;2022-12-15T00:15:58;32.83;;;31.43;;
33206;SDS011;19565;46.602;11.534;2022-12-15T00:18:44;33.17;;;31.77;;
33206;SDS011;19565;46.602;11.534;2022-12-15T00:21:29;33.57;;;31.87;;
33206;SDS011;19565;46.602;11.534;2022-12-15T00:24:17;10.47;;;9.87;;
33206;SDS011;19565;46.602;11.534;2022-12-15T00:27:03;9.10;;;8.60;;
33206;SDS011;19565;46.602;11.534;2022-12-15T00:29:49;8.50;;;8.00;;
33206;SDS011;19565;46.602;11.534;2022-12-15T00:32:34;8.67;;;8.17;;
33206;SDS011;19565;46.602;11.534;2022-12-15T00:35:20;8.10;;;7.60;;
33206;SDS011;19565;46.602;11.534;2022-12-15T00:38:06;10.60;;;9.83;;
33206;SDS011;19565;46.602;11.534;2022-12-15T00:40:53;8.30;;;7.80;;
33206;SDS011;19565;46.602;11.534;2022-12-15T00:43:25;8.03;;;7.57;;
33206;SDS011;19565;46.602;11.534;2022-12-15T00:45:53;8.37;;;7.87;;
33206;SDS011;19565;46.602;11.534;2022-12-15T00:48:39;7.37;;;6.93;;
33206;SDS011;19565;46.602;11.534;2022-12-15T00:51:07;6.90;;;6.50;;
33206;SDS011;19565;46.602;11.534;2022-12-15T00:53:35;8.03;;;7.53;;
33206;SDS011;19565;46.602;11.534;2022-12-15T00:56:22;7.80;;;7.30;;
33206;SDS011;19565;46.602;11.534;2022-12-15T00:59:07;7.50;;;7.10;;
33206;SDS011;19565;46.602;11.534;2022-12-15T01:01:53;7.20;;;6.80;;
33206;SDS011;19565;46.602;11.534;2022-12-15T01:04:41;6.73;;;6.33;;
33206;SDS011;19565;46.602;11.534;2022-12-15T01:07:26;7.87;;;7.27;;
33206;SDS011;19565;46.602;11.534;2022-12-15T01:10:15;7.17;;;6.77;;
33206;SDS011;19565;46.602;11.534;2022-12-15T01:13:03;7.80;;;7.30;;
33206;SDS011;19565;46.602;11.534;2022-12-15T01:15:49;7.40;;;7.00;;
33206;SDS011;19565;46.602;11.534;2022-12-15T01:18:35;7.13;;;6.60;;
33206;SDS011;19565;46.602;11.534;2022-12-15T01:21:21;6.10;;;5.73;;
33206;SDS011;19565;46.602;11.534;2022-12-15T01:23:51;8.93;;;8.13;;
33206;SDS011;19565;46.602;11.534;2022-12-15T01:26:20;6.43;;;6.03;;
33206;SDS011;19565;46.602;11.534;2022-12-15T01:28:49;25.20;;;24.10;;
33206;SDS011;19565;46.602;11.534;2022-12-15T01:31:17;22.60;;;21.60;;
33206;SDS011;19565;46.602;11.534;2022-12-15T01:33:46;23.53;;;22.43;;
33206;SDS011;19565;46.602;11.534;2022-12-15T01:36:14;24.17;;;23.07;;
33206;SDS011;19565;46.602;11.534;2022-12-15T01:38:42;22.73;;;21.73;;
33206;SDS011;19565;46.602;11.534;2022-12-15T01:41:18;23.10;;;21.90;;
33206;SDS011;19565;46.602;11.534;2022-12-15T01:43:46;21.13;;;20.00;;
33206;SDS011;19565;46.602;11.534;2022-12-15T01:46:16;18.57;;;17.67;;
33206;SDS011;19565;46.602;11.534;2022-12-15T01:48:47;16.23;;;15.43;;
33206;SDS011;19565;46.602;11.534;2022-12-15T01:51:22;15.07;;;14.33;;
33206;SDS011;19565;46.602;11.534;2022-12-15T01:53:54;13.23;;;12.53;;
33206;SDS011;19565;46.602;11.534;2022-12-15T01:56:28;12.50;;;11.53;;
33206;SDS011;19565;46.602;11.534;2022-12-15T01:59:04;10.60;;;10.00;;
33206;SDS011;19565;46.602;11.534;2022-12-15T02:01:36;10.10;;;9.50;;
33206;SDS011;19565;46.602;11.534;2022-12-15T02:04:05;11.03;;;10.43;;
33206;SDS011;19565;46.602;11.534;2022-12-15T02:06:34;10.93;;;10.23;;
33206;SDS011;19565;46.602;11.534;2022-12-15T02:09:02;9.47;;;8.97;;
33206;SDS011;19565;46.602;11.534;2022-12-15T02:14:25;2.37;;;2.27;;
33206;SDS011;19565;46.602;11.534;2022-12-15T02:17:12;2.40;;;2.30;;
33206;SDS011;19565;46.602;11.534;2022-12-15T02:23:08;1.60;;;1.60;;
33206;SDS011;19565;46.602;11.534;2022-12-15T02:26:08;2.17;;;2.07;;
33206;SDS011;19565;46.602;11.534;2022-12-15T02:28:51;2.33;;;2.17;;
33206;SDS011;19565;46.602;11.534;2022-12-15T02:31:30;2.00;;;1.90;;
33206;SDS011;19565;46.602;11.534;2022-12-15T02:34:18;2.30;;;2.20;;
33206;SDS011;19565;46.602;11.534;2022-12-15T02:36:53;3.80;;;3.60;;
33206;SDS011;19565;46.602;11.534;2022-12-15T02:39:24;2.57;;;2.47;;
33206;SDS011;19565;46.602;11.534;2022-12-15T02:41:52;2.40;;;2.30;;
33206;SDS011;19565;46.602;11.534;2022-12-15T02:44:21;2.60;;;2.50;;
33206;SDS011;19565;46.602;11.534;2022-12-15T02:47:01;3.37;;;3.17;;
33206;SDS011;19565;46.602;11.534;2022-12-15T02:49:41;2.60;;;2.50;;
33206;SDS011;19565;46.602;11.534;2022-12-15T02:52:20;2.80;;;2.70;;
33206;SDS011;19565;46.602;11.534;2022-12-15T02:55:00;2.93;;;2.83;;
33206;SDS011;19565;46.602;11.534;2022-12-15T02:57:40;3.93;;;3.63;;
33206;SDS011;19565;46.602;11.534;2022-12-15T03:00:14;3.30;;;3.10;;
33206;SDS011;19565;46.602;11.534;2022-12-15T03:02:46;2.70;;;2.60;;
33206;SDS011;19565;46.602;11.534;2022-12-15T03:05:17;3.40;;;3.20;;
33206;SDS011;19565;46.602;11.534;2022-12-15T03:07:48;4.43;;;3.40;;
33206;SDS011;19565;46.602;11.534;2022-12-15T03:10:17;14.47;;;13.77;;
33206;SDS011;19565;46.602;11.534;2022-12-15T03:12:46;14.73;;;14.03;;
33206;SDS011;19565;46.602;11.534;2022-12-15T03:15:15;17.17;;;16.37;;
33206;SDS011;19565;46.602;11.534;2022-12-15T03:17:43;17.67;;;16.77;;
33206;SDS011;19565;46.602;11.534;2022-12-15T03:20:15;17.57;;;16.70;;
33206;SDS011;19565;46.602;11.534;2022-12-15T03:22:43;18.17;;;17.27;;
33206;SDS011;19565;46.602;11.534;2022-12-15T03:25:11;20.57;;;19.43;;
33206;SDS011;19565;46.602;11.534;2022-12-15T03:27:39;18.53;;;17.63;;
33206;SDS011;19565;46.602;11.534;2022-12-15T03:30:07;18.60;;;17.70;;
33206;SDS011;19565;46.602;11.534;2022-12-15T03:32:36;18.47;;;17.57;;
33206;SDS011;19565;46.602;11.534;2022-12-15T03:35:06;18.10;;;17.27;;
33206;SDS011;19565;46.602;11.534;2022-12-15T03:37:35;176.27;;;164.93;;
33206;SDS011;19565;46.602;11.534;2022-12-15T03:40:03;18.70;;;17.70;;
33206;SDS011;19565;46.602;11.534;2022-12-15T03:42:32;19.73;;;18.83;;
33206;SDS011;19565;46.602;11.534;2022-12-15T03:45:16;20.90;;;19.90;;
33206;SDS011;19565;46.602;11.534;2022-12-15T03:47:45;21.30;;;20.30;;
33206;SDS011;19565;46.602;11.534;2022-12-15T03:50:16;20.60;;;19.67;;
33206;SDS011;19565;46.602;11.534;2022-12-15T03:52:48;21.67;;;20.67;;
33206;SDS011;19565;46.602;11.534;2022-12-15T03:55:17;33.97;;;28.47;;
33206;SDS011;19565;46.602;11.534;2022-12-15T03:57:46;21.10;;;20.10;;
33206;SDS011;19565;46.602;11.534;2022-12-15T04:00:14;21.73;;;20.73;;
33206;SDS011;19565;46.602;11.534;2022-12-15T04:02:44;22.87;;;21.80;;
33206;SDS011;19565;46.602;11.534;2022-12-15T04:05:17;23.97;;;22.67;;
33206;SDS011;19565;46.602;11.534;2022-12-15T04:07:49;23.07;;;22.07;;
33206;SDS011;19565;46.602;11.534;2022-12-15T04:10:17;22.53;;;21.53;;
33206;SDS011;19565;46.602;11.534;2022-12-15T04:12:46;23.13;;;22.07;;
33206;SDS011;19565;46.602;11.534;2022-12-15T04:15:14;23.23;;;22.17;;
33206;SDS011;19565;46.602;11.534;2022-12-15T04:17:42;23.53;;;22.50;;
33206;SDS011;19565;46.602;11.534;2022-12-15T04:20:10;23.90;;;22.80;;
33206;SDS011;19565;46.602;11.534;2022-12-15T04:22:40;22.00;;;21.00;;
33206;SDS011;19565;46.602;11.534;2022-12-15T04:25:10;21.57;;;20.43;;
33206;SDS011;19565;46.602;11.534;2022-12-15T04:27:57;16.70;;;15.90;;
33206;SDS011;19565;46.602;11.534;2022-12-15T04:30:43;17.83;;;16.90;;
33206;SDS011;19565;46.602;11.534;2022-12-15T04:33:31;14.47;;;13.77;;
33206;SDS011;19565;46.602;11.534;2022-12-15T04:36:17;13.73;;;13.03;;
33206;SDS011;19565;46.602;11.534;2022-12-15T04:39:05;13.23;;;12.53;;
33206;SDS011;19565;46.602;11.534;2022-12-15T04:41:50;12.37;;;11.77;;
33206;SDS011;19565;46.602;11.534;2022-12-15T04:44:38;12.07;;;11.47;;
33206;SDS011;19565;46.602;11.534;2022-12-15T04:47:23;12.13;;;11.43;;
33206;SDS011;19565;46.602;11.534;2022-12-15T04:50:09;11.40;;;10.80;;
33206;SDS011;19565;46.602;11.534;2022-12-15T04:52:54;13.10;;;12.37;;
33206;SDS011;19565;46.602;11.534;2022-12-15T04:55:51;11.90;;;11.20;;
33206;SDS011;19565;46.602;11.534;2022-12-15T04:58:43;11.70;;;11.10;;
33206;SDS011;19565;46.602;11.534;2022-12-15T05:01:29;12.77;;;12.07;;
33206;SDS011;19565;46.602;11.534;2022-12-15T05:04:16;13.73;;;13.03;;
33206;SDS011;19565;46.602;11.534;2022-12-15T05:07:02;13.40;;;12.70;;
33206;SDS011;19565;46.602;11.534;2022-12-15T05:09:47;13.83;;;13.13;;
33206;SDS011;19565;46.602;11.534;2022-12-15T05:12:41;13.50;;;12.80;;
33206;SDS011;19565;46.602;11.534;2022-12-15T05:15:27;15.23;;;13.70;;
33206;SDS011;19565;46.602;11.534;2022-12-15T05:18:13;14.07;;;13.27;;
33206;SDS011;19565;46.602;11.534;2022-12-15T05:20:58;14.27;;;13.53;;
33206;SDS011;19565;46.602;11.534;2022-12-15T05:23:44;15.57;;;14.77;;
33206;SDS011;19565;46.602;11.534;2022-12-15T05:26:30;15.17;;;14.47;;
33206;SDS011;19565;46.602;11.534;2022-12-15T05:29:19;14.97;;;14.27;;
33206;SDS011;19565;46.602;11.534;2022-12-15T05:32:05;15.47;;;14.67;;
33206;SDS011;19565;46.602;11.534;2022-12-15T05:34:34;16.70;;;15.80;;
33206;SDS011;19565;46.602;11.534;2022-12-15T05:37:03;14.30;;;13.60;;
33206;SDS011;19565;46.602;11.534;2022-12-15T05:39:32;15.67;;;14.87;;
33206;SDS011;19565;46.602;11.534;2022-12-15T05:42:00;16.40;;;15.60;;
33206;SDS011;19565;46.602;11.534;2022-12-15T05:44:30;16.50;;;15.63;;
33206;SDS011;19565;46.602;11.534;2022-12-15T05:46:58;15.83;;;15.00;;
33206;SDS011;19565;46.602;11.534;2022-12-15T05:49:26;15.50;;;14.70;;
33206;SDS011;19565;46.602;11.534;2022-12-15T05:51:54;16.40;;;15.60;;
33206;SDS011;19565;46.602;11.534;2022-12-15T05:54:22;16.10;;;15.30;;
33206;SDS011;19565;46.602;11.534;2022-12-15T05:56:50;16.10;;;15.30;;
33206;SDS011;19565;46.602;11.534;2022-12-15T05:59:19;16.57;;;15.77;;
33206;SDS011;19565;46.602;11.534;2022-12-15T06:01:48;16.77;;;15.97;;
33206;SDS011;19565;46.602;11.534;2022-12-15T06:04:16;16.60;;;15.80;;
33206;SDS011;19565;46.602;11.534;2022-12-15T06:06:47;18.93;;;17.97;;
33206;SDS011;19565;46.602;11.534;2022-12-15T06:09:15;18.37;;;17.27;;
33206;SDS011;19565;46.602;11.534;2022-12-15T06:11:43;17.23;;;16.43;;
33206;SDS011;19565;46.602;11.534;2022-12-15T06:14:11;17.50;;;16.70;;
33206;SDS011;19565;46.602;11.534;2022-12-15T06:16:40;17.43;;;16.63;;
33206;SDS011;19565;46.602;11.534;2022-12-15T06:19:17;18.40;;;17.53;;
33206;SDS011;19565;46.602;11.534;2022-12-15T06:21:46;17.57;;;16.77;;
33206;SDS011;19565;46.602;11.534;2022-12-15T06:24:14;16.33;;;15.53;;
33206;SDS011;19565;46.602;11.534;2022-12-15T06:26:43;20.87;;;19.93;;
33206;SDS011;19565;46.602;11.534;2022-12-15T06:29:15;19.00;;;18.10;;
33206;SDS011;19565;46.602;11.534;2022-12-15T06:31:43;21.83;;;20.73;;
33206;SDS011;19565;46.602;11.534;2022-12-15T06:34:12;22.30;;;21.30;;
33206;SDS011;19565;46.602;11.534;2022-12-15T06:36:43;21.03;;;20.03;;
33206;SDS011;19565;46.602;11.534;2022-12-15T06:39:12;23.30;;;22.30;;
33206;SDS011;19565;46.602;11.534;2022-12-15T06:41:42;20.00;;;18.80;;
33206;SDS011;19565;46.602;11.534;2022-12-15T06:44:13;18.37;;;17.47;;
33206;SDS011;19565;46.602;11.534;2022-12-15T06:46:42;20.00;;;19.00;;
33206;SDS011;19565;46.602;11.534;2022-12-15T06:49:11;18.90;;;18.00;;
33206;SDS011;19565;46.602;11.534;2022-12-15T06:51:39;19.47;;;18.57;;
33206;SDS011;19565;46.602;11.534;2022-12-15T06:54:10;21.97;;;20.97;;
33206;SDS011;19565;46.602;11.534;2022-12-15T06:56:39;21.27;;;20.27;;
33206;SDS011;19565;46.602;11.534;2022-12-15T06:59:08;20.00;;;19.00;;
33206;SDS011;19565;46.602;11.534;2022-12-15T07:01:38;18.03;;;17.23;;
33206;SDS011;19565;46.602;11.534;2022-12-15T07:04:07;16.77;;;15.97;;
33206;SDS011;19565;46.602;11.534;2022-12-15T07:06:36;17.60;;;16.70;;
33206;SDS011;19565;46.602;11.534;2022-12-15T07:09:06;15.80;;;15.00;;
33206;SDS011;19565;46.602;11.534;2022-12-15T07:11:39;16.67;;;15.87;;
33206;SDS011;19565;46.602;11.534;2022-12-15T07:14:07;16.30;;;15.40;;
33206;SDS011;19565;46.602;11.534;2022-12-15T07:16:36;15.57;;;14.77;;
33206;SDS011;19565;46.602;11.534;2022-12-15T07:19:04;15.97;;;15.17;;
33206;SDS011;19565;46.602;11.534;2022-12-15T07:21:32;23.73;;;22.33;;
33206;SDS011;19565;46.602;11.534;2022-12-15T07:24:00;16.67;;;15.87;;
33206;SDS011;19565;46.602;11.534;2022-12-15T07:26:29;14.10;;;13.40;;
33206;SDS011;19565;46.602;11.534;2022-12-15T07:28:58;14.00;;;13.30;;
33206;SDS011;19565;46.602;11.534;2022-12-15T07:31:26;13.17;;;12.47;;
33206;SDS011;19565;46.602;11.534;2022-12-15T07:33:55;13.00;;;12.30;;
33206;SDS011;19565;46.602;11.534;2022-12-15T07:36:23;13.23;;;12.53;;
33206;SDS011;19565;46.602;11.534;2022-12-15T07:38:55;13.10;;;12.40;;
33206;SDS011;19565;46.602;11.534;2022-12-15T07:41:26;13.67;;;12.97;;
33206;SDS011;19565;46.602;11.534;2022-12-15T07:43:55;16.13;;;15.23;;
33206;SDS011;19565;46.602;11.534;2022-12-15T07:46:25;14.30;;;13.60;;
33206;SDS011;19565;46.602;11.534;2022-12-15T07:48:54;16.10;;;15.20;;
33206;SDS011;19565;46.602;11.534;2022-12-15T07:51:22;17.23;;;16.43;;
33206;SDS011;19565;46.602;11.534;2022-12-15T07:53:50;17.70;;;16.90;;
33206;SDS011;19565;46.602;11.534;2022-12-15T07:56:18;19.10;;;18.20;;
33206;SDS011;19565;46.602;11.534;2022-12-15T07:58:47;21.07;;;20.03;;
33206;SDS011;19565;46.602;11.534;2022-12-15T08:01:19;19.63;;;18.73;;
33206;SDS011;19565;46.602;11.534;2022-12-15T08:03:49;20.97;;;19.93;;
33206;SDS011;19565;46.602;11.534;2022-12-15T08:06:17;22.60;;;21.40;;
33206;SDS011;19565;46.602;11.534;2022-12-15T08:08:45;23.03;;;21.37;;
33206;SDS011;19565;46.602;11.534;2022-12-15T08:11:16;22.30;;;20.50;;
33206;SDS011;19565;46.602;11.534;2022-12-15T08:13:46;21.87;;;20.87;;
33206;SDS011;19565;46.602;11.534;2022-12-15T08:16:34;23.07;;;21.97;;
33206;SDS011;19565;46.602;11.534;2022-12-15T08:19:04;22.63;;;21.63;;
33206;SDS011;19565;46.602;11.534;2022-12-15T08:21:33;22.97;;;21.97;;
33206;SDS011;19565;46.602;11.534;2022-12-15T08:24:01;21.47;;;20.47;;
33206;SDS011;19565;46.602;11.534;2022-12-15T08:26:29;22.10;;;21.10;;
33206;SDS011;19565;46.602;11.534;2022-12-15T08:28:59;25.83;;;24.70;;
33206;SDS011;19565;46.602;11.534;2022-12-15T08:31:49;21.03;;;20.03;;
33206;SDS011;19565;46.602;11.534;2022-12-15T08:34:19;19.77;;;18.87;;
33206;SDS011;19565;46.602;11.534;2022-12-15T08:36:47;19.20;;;18.30;;
33206;SDS011;19565;46.602;11.534;2022-12-15T08:39:15;19.60;;;18.70;;
33206;SDS011;19565;46.602;11.534;2022-12-15T08:41:44;18.50;;;17.60;;
33206;SDS011;19565;46.602;11.534;2022-12-15T08:44:12;19.63;;;18.73;;
33206;SDS011;19565;46.602;11.534;2022-12-15T08:46:42;19.90;;;19.00;;
33206;SDS011;19565;46.602;11.534;2022-12-15T08:49:10;7.27;;;6.77;;
33206;SDS011;19565;46.602;11.534;2022-12-15T08:51:48;21.00;;;19.90;;
33206;SDS011;19565;46.602;11.534;2022-12-15T08:54:17;22.40;;;21.40;;
33206;SDS011;19565;46.602;11.534;2022-12-15T08:56:46;22.30;;;21.30;;
33206;SDS011;19565;46.602;11.534;2022-12-15T08:59:15;23.33;;;22.23;;
33206;SDS011;19565;46.602;11.534;2022-12-15T09:01:44;25.87;;;24.67;;
33206;SDS011;19565;46.602;11.534;2022-12-15T09:04:12;24.00;;;22.90;;
33206;SDS011;19565;46.602;11.534;2022-12-15T09:06:41;8.90;;;8.30;;
33206;SDS011;19565;46.602;11.534;2022-12-15T09:09:15;10.87;;;10.27;;
33206;SDS011;19565;46.602;11.534;2022-12-15T09:11:44;9.90;;;9.30;;
33206;SDS011;19565;46.602;11.534;2022-12-15T09:14:12;11.07;;;10.47;;
33206;SDS011;19565;46.602;11.534;2022-12-15T09:16:40;34.57;;;32.97;;
33206;SDS011;19565;46.602;11.534;2022-12-15T09:19:08;33.63;;;32.23;;
33206;SDS011;19565;46.602;11.534;2022-12-15T09:21:36;33.10;;;31.70;;
33206;SDS011;19565;46.602;11.534;2022-12-15T09:24:05;32.47;;;31.07;;
33206;SDS011;19565;46.602;11.534;2022-12-15T09:26:34;35.10;;;33.60;;
33206;SDS011;19565;46.602;11.534;2022-12-15T09:29:02;37.57;;;35.97;;
33206;SDS011;19565;46.602;11.534;2022-12-15T09:31:31;38.00;;;36.40;;
33206;SDS011;19565;46.602;11.534;2022-12-15T09:34:02;39.27;;;37.57;;
33206;SDS011;19565;46.602;11.534;2022-12-15T09:36:30;44.10;;;42.30;;
33206;SDS011;19565;46.602;11.534;2022-12-15T09:38:59;40.50;;;38.73;;
33206;SDS011;19565;46.602;11.534;2022-12-15T09:41:28;42.83;;;41.03;;
33206;SDS011;19565;46.602;11.534;2022-12-15T09:44:03;45.60;;;43.60;;
33206;SDS011;19565;46.602;11.534;2022-12-15T09:46:37;44.70;;;42.73;;
33206;SDS011;19565;46.602;11.534;2022-12-15T09:49:20;46.50;;;44.50;;
33206;SDS011;19565;46.602;11.534;2022-12-15T09:51:59;44.10;;;42.20;;
33206;SDS011;19565;46.602;11.534;2022-12-15T09:54:36;44.07;;;42.13;;
33206;SDS011;19565;46.602;11.534;2022-12-15T09:57:09;50.07;;;47.73;;
33206;SDS011;19565;46.602;11.534;2022-12-15T09:59:48;41.97;;;40.17;;
33206;SDS011;19565;46.602;11.534;2022-12-15T10:02:44;47.83;;;45.57;;
33206;SDS011;19565;46.602;11.534;2022-12-15T10:05:35;40.83;;;39.13;;
33206;SDS011;19565;46.602;11.534;2022-12-15T10:08:32;46.90;;;44.90;;
33206;SDS011;19565;46.602;11.534;2022-12-15T10:11:05;43.70;;;41.87;;
33206;SDS011;19565;46.602;11.534;2022-12-15T10:13:51;49.07;;;46.87;;
33206;SDS011;19565;46.602;11.534;2022-12-15T10:16:27;45.87;;;43.97;;
33206;SDS011;19565;46.602;11.534;2022-12-15T10:19:02;45.37;;;43.37;;
33206;SDS011;19565;46.602;11.534;2022-12-15T10:21:35;48.00;;;46.00;;
33206;SDS011;19565;46.602;11.534;2022-12-15T10:24:16;41.27;;;39.57;;
33206;SDS011;19565;46.602;11.534;2022-12-15T10:27:12;43.00;;;41.10;;
33206;SDS011;19565;46.602;11.534;2022-12-15T10:29:52;46.43;;;44.53;;
33206;SDS011;19565;46.602;11.534;2022-12-15T10:32:29;48.00;;;46.00;;
33206;SDS011;19565;46.602;11.534;2022-12-15T10:35:11;41.10;;;39.30;;
33206;SDS011;19565;46.602;11.534;2022-12-15T10:37:42;41.67;;;39.87;;
33206;SDS011;19565;46.602;11.534;2022-12-15T10:40:13;45.33;;;43.40;;
33206;SDS011;19565;46.602;11.534;2022-12-15T10:42:45;48.77;;;46.73;;
33206;SDS011;19565;46.602;11.534;2022-12-15T10:48:03;48.37;;;46.27;;
33206;SDS011;19565;46.602;11.534;2022-12-15T10:50:32;49.50;;;47.30;;
33206;SDS011;19565;46.602;11.534;2022-12-15T10:53:05;51.37;;;49.27;;
33206;SDS011;19565;46.602;11.534;2022-12-15T10:55:36;51.23;;;49.13;;
33206;SDS011;19565;46.602;11.534;2022-12-15T10:58:13;52.43;;;50.23;;
33206;SDS011;19565;46.602;11.534;2022-12-15T11:00:43;45.33;;;43.43;;
33206;SDS011;19565;46.602;11.534;2022-12-15T11:03:21;41.03;;;39.23;;
33206;SDS011;19565;46.602;11.534;2022-12-15T11:05:50;41.07;;;39.27;;
33206;SDS011;19565;46.602;11.534;2022-12-15T11:08:19;41.00;;;39.20;;
33206;SDS011;19565;46.602;11.534;2022-12-15T11:10:49;39.30;;;37.60;;
33206;SDS011;19565;46.602;11.534;2022-12-15T11:13:37;40.23;;;38.43;;
33206;SDS011;19565;46.602;11.534;2022-12-15T11:16:10;40.63;;;38.83;;
33206;SDS011;19565;46.602;11.534;2022-12-15T11:18:44;40.27;;;38.57;;
33206;SDS011;19565;46.602;11.534;2022-12-15T11:21:18;42.17;;;40.37;;
33206;SDS011;19565;46.602;11.534;2022-12-15T11:23:56;42.23;;;40.43;;
33206;SDS011;19565;46.602;11.534;2022-12-15T11:26:37;42.10;;;40.30;;
33206;SDS011;19565;46.602;11.534;2022-12-15T11:29:23;43.13;;;41.33;;
33206;SDS011;19565;46.602;11.534;2022-12-15T11:31:55;44.70;;;42.70;;
33206;SDS011;19565;46.602;11.534;2022-12-15T11:34:34;42.20;;;40.40;;
33206;SDS011;19565;46.602;11.534;2022-12-15T11:37:12;43.27;;;41.47;;
33206;SDS011;19565;46.602;11.534;2022-12-15T11:40:04;42.40;;;40.60;;
33206;SDS011;19565;46.602;11.534;2022-12-15T11:43:03;44.20;;;42.30;;
33206;SDS011;19565;46.602;11.534;2022-12-15T11:45:57;46.50;;;44.50;;
33206;SDS011;19565;46.602;11.534;2022-12-15T11:48:34;49.67;;;47.37;;
33206;SDS011;19565;46.602;11.534;2022-12-15T11:51:11;49.43;;;47.33;;
33206;SDS011;19565;46.602;11.534;2022-12-15T11:53:53;51.73;;;49.57;;
33206;SDS011;19565;46.602;11.534;2022-12-15T11:56:36;48.83;;;46.73;;
33206;SDS011;19565;46.602;11.534;2022-12-15T11:59:16;67.67;;;64.87;;
33206;SDS011;19565;46.602;11.534;2022-12-15T12:02:14;64.50;;;61.90;;
33206;SDS011;19565;46.602;11.534;2022-12-15T12:05:01;58.17;;;55.77;;
33206;SDS011;19565;46.602;11.534;2022-12-15T12:07:46;58.53;;;56.13;;
33206;SDS011;19565;46.602;11.534;2022-12-15T12:10:22;38.20;;;36.60;;
33206;SDS011;19565;46.602;11.534;2022-12-15T12:12:59;40.80;;;39.10;;
33206;SDS011;19565;46.602;11.534;2022-12-15T12:15:39;41.77;;;39.97;;
33206;SDS011;19565;46.602;11.534;2022-12-15T12:18:16;28.37;;;27.17;;
33206;SDS011;19565;46.602;11.534;2022-12-15T12:20:48;56.73;;;54.40;;
33206;SDS011;19565;46.602;11.534;2022-12-15T12:23:26;55.40;;;52.90;;
33206;SDS011;19565;46.602;11.534;2022-12-15T12:25:59;57.27;;;54.73;;
33206;SDS011;19565;46.602;11.534;2022-12-15T12:28:33;56.13;;;53.83;;
33206;SDS011;19565;46.602;11.534;2022-12-15T12:31:11;55.60;;;53.30;;
33206;SDS011;19565;46.602;11.534;2022-12-15T12:33:50;69.43;;;66.63;;
33206;SDS011;19565;46.602;11.534;2022-12-15T12:36:22;58.37;;;55.93;;
33206;SDS011;19565;46.602;11.534;2022-12-15T12:38:52;55.30;;;53.00;;
33206;SDS011;19565;46.602;11.534;2022-12-15T12:41:24;56.37;;;54.07;;
33206;SDS011;19565;46.602;11.534;2022-12-15T12:44:03;56.83;;;54.43;;
33206;SDS011;19565;46.602;11.534;2022-12-15T12:46:39;54.27;;;51.97;;
33206;SDS011;19565;46.602;11.534;2022-12-15T12:49:15;54.67;;;52.33;;
33206;SDS011;19565;46.602;11.534;2022-12-15T12:51:53;58.27;;;54.90;;
33206;SDS011;19565;46.602;11.534;2022-12-15T12:57:28;61.60;;;59.00;;
33206;SDS011;19565;46.602;11.534;2022-12-15T13:00:00;54.70;;;52.40;;
33206;SDS011;19565;46.602;11.534;2022-12-15T13:02:39;56.00;;;53.60;;
33206;SDS011;19565;46.602;11.534;2022-12-15T13:05:26;52.83;;;50.53;;
33206;SDS011;19565;46.602;11.534;2022-12-15T13:10:53;52.97;;;50.67;;
33206;SDS011;19565;46.602;11.534;2022-12-15T13:13:35;52.43;;;50.23;;
33206;SDS011;19565;46.602;11.534;2022-12-15T13:16:17;56.37;;;53.93;;
33206;SDS011;19565;46.602;11.534;2022-12-15T13:18:58;55.13;;;52.80;;
33206;SDS011;19565;46.602;11.534;2022-12-15T13:21:45;52.07;;;49.87;;
33206;SDS011;19565;46.602;11.534;2022-12-15T13:24:22;51.90;;;49.53;;
33206;SDS011;19565;46.602;11.534;2022-12-15T13:27:08;51.73;;;49.43;;
33206;SDS011;19565;46.602;11.534;2022-12-15T13:29:56;53.00;;;49.00;;
33206;SDS011;19565;46.602;11.534;2022-12-15T13:32:27;28.00;;;26.70;;
33206;SDS011;19565;46.602;11.534;2022-12-15T13:35:00;25.13;;;23.93;;
33206;SDS011;19565;46.602;11.534;2022-12-15T13:37:49;23.47;;;22.37;;
33206;SDS011;19565;46.602;11.534;2022-12-15T13:40:29;31.53;;;30.13;;
33206;SDS011;19565;46.602;11.534;2022-12-15T13:43:28;25.43;;;24.33;;
33206;SDS011;19565;46.602;11.534;2022-12-15T13:46:09;25.57;;;24.30;;
33206;SDS011;19565;46.602;11.534;2022-12-15T13:48:41;24.13;;;23.03;;
33206;SDS011;19565;46.602;11.534;2022-12-15T13:51:24;25.37;;;24.17;;
33206;SDS011;19565;46.602;11.534;2022-12-15T13:53:57;25.13;;;23.93;;
33206;SDS011;19565;46.602;11.534;2022-12-15T14:02:23;26.07;;;24.87;;
33206;SDS011;19565;46.602;11.534;2022-12-15T14:05:05;40.03;;;38.23;;
33206;SDS011;19565;46.602;11.534;2022-12-15T14:07:42;28.57;;;27.27;;
33206;SDS011;19565;46.602;11.534;2022-12-15T14:10:20;28.03;;;26.73;;
33206;SDS011;19565;46.602;11.534;2022-12-15T14:12:51;26.20;;;24.93;;
33206;SDS011;19565;46.602;11.534;2022-12-15T14:15:24;31.10;;;29.50;;
33206;SDS011;19565;46.602;11.534;2022-12-15T14:17:54;29.60;;;28.10;;
33206;SDS011;19565;46.602;11.534;2022-12-15T14:20:25;30.27;;;28.97;;
33206;SDS011;19565;46.602;11.534;2022-12-15T14:22:55;30.77;;;29.47;;
33206;SDS011;19565;46.602;11.534;2022-12-15T14:25:25;31.83;;;30.43;;
33206;SDS011;19565;46.602;11.534;2022-12-15T14:27:54;43.43;;;41.13;;
33206;SDS011;19565;46.602;11.534;2022-12-15T14:30:26;44.90;;;42.77;;
33206;SDS011;19565;46.602;11.534;2022-12-15T14:32:56;45.37;;;43.37;;
33206;SDS011;19565;46.602;11.534;2022-12-15T14:35:29;43.20;;;41.20;;
33206;SDS011;19565;46.602;11.534;2022-12-15T14:38:00;61.57;;;58.90;;
33206;SDS011;19565;46.602;11.534;2022-12-15T14:40:32;74.20;;;70.20;;
33206;SDS011;19565;46.602;11.534;2022-12-15T14:43:02;66.40;;;63.23;;
33206;SDS011;19565;46.602;11.534;2022-12-15T14:45:33;62.57;;;59.97;;
33206;SDS011;19565;46.602;11.534;2022-12-15T14:48:05;56.73;;;54.33;;
33206;SDS011;19565;46.602;11.534;2022-12-15T14:50:57;56.67;;;54.30;;
33206;SDS011;19565;46.602;11.534;2022-12-15T14:53:27;57.03;;;54.53;;
33206;SDS011;19565;46.602;11.534;2022-12-15T14:56:13;70.20;;;67.20;;
33206;SDS011;19565;46.602;11.534;2022-12-15T14:58:57;64.37;;;61.57;;
33206;SDS011;19565;46.602;11.534;2022-12-15T15:01:32;54.63;;;52.33;;
33206;SDS011;19565;46.602;11.534;2022-12-15T15:04:22;56.90;;;54.47;;
33206;SDS011;19565;46.602;11.534;2022-12-15T15:06:54;59.20;;;56.40;;
33206;SDS011;19565;46.602;11.534;2022-12-15T15:09:25;57.53;;;54.93;;
33206;SDS011;19565;46.602;11.534;2022-12-15T15:11:55;61.77;;;59.17;;
33206;SDS011;19565;46.602;11.534;2022-12-15T15:14:29;59.20;;;56.60;;
33206;SDS011;19565;46.602;11.534;2022-12-15T15:17:01;64.73;;;62.03;;
33206;SDS011;19565;46.602;11.534;2022-12-15T15:19:32;65.80;;;63.00;;